createdAt,value
2017-07-26T00:00:04.249Z,1001.56
2017-07-26T00:00:58.198Z,1001.59
2017-07-26T00:01:58.671Z,1001.58
2017-07-26T00:02:46.398Z,1001.56
2017-07-26T00:03:40.616Z,1001.60
2017-07-26T00:04:34.397Z,1001.59
2017-07-26T00:05:29.435Z,1001.59
2017-07-26T00:06:24.484Z,1001.59
2017-07-26T00:07:12.661Z,1001.60
2017-07-26T00:08:12.667Z,1001.63
2017-07-26T00:09:02.034Z,1001.65
2017-07-26T00:09:50.642Z,1001.60
2017-07-26T00:10:50.706Z,1001.63
2017-07-26T00:11:45.644Z,1001.61
2017-07-26T00:12:39.898Z,1001.63
2017-07-26T00:13:34.722Z,1001.66
2017-07-26T00:14:23.800Z,1001.63
2017-07-26T00:15:12.094Z,1001.64
2017-07-26T00:16:11.931Z,1001.68
2017-07-26T00:17:05.972Z,1001.63
2017-07-26T00:18:00.198Z,1001.63
2017-07-26T00:19:00.489Z,1001.64
2017-07-26T00:20:00.046Z,1001.68
2017-07-26T00:20:55.153Z,1001.68
2017-07-26T00:21:55.132Z,1001.68
2017-07-26T00:22:50.226Z,1001.70
2017-07-26T00:23:44.595Z,1001.68
2017-07-26T00:24:38.199Z,1001.70
2017-07-26T00:25:38.214Z,1001.76
2017-07-26T00:26:27.367Z,1001.71
2017-07-26T00:27:22.364Z,1001.75
2017-07-26T00:28:16.855Z,1001.74
2017-07-26T00:29:10.866Z,1001.79
2017-07-26T00:30:05.444Z,1001.78
2017-07-26T00:31:05.499Z,1001.77
2017-07-26T00:32:00.616Z,1001.79
2017-07-26T00:32:55.515Z,1001.82
2017-07-26T00:33:56.032Z,1001.82
2017-07-26T00:34:51.045Z,1001.82
2017-07-26T00:35:44.653Z,1001.82
2017-07-26T00:36:38.952Z,1001.80
2017-07-26T00:37:39.767Z,1001.82
2017-07-26T00:38:41.181Z,1001.76
2017-07-26T00:39:34.903Z,1001.78
2017-07-26T00:40:35.077Z,1001.79
2017-07-26T00:41:29.915Z,1001.81
2017-07-26T00:42:29.917Z,1001.82
2017-07-26T00:43:18.976Z,1001.84
2017-07-26T00:44:12.967Z,1001.85
2017-07-26T00:45:08.202Z,1001.83
2017-07-26T00:46:09.038Z,1001.83
2017-07-26T00:47:03.179Z,1001.84
2017-07-26T00:47:51.113Z,1001.82
2017-07-26T00:48:45.689Z,1001.84
2017-07-26T00:49:39.206Z,1001.82
2017-07-26T00:50:34.273Z,1001.80
2017-07-26T00:51:29.371Z,1001.83
2017-07-26T00:52:23.396Z,1001.82
2017-07-26T00:53:17.769Z,1001.77
2017-07-26T00:54:17.877Z,1001.79
2017-07-26T00:55:11.749Z,1001.78
2017-07-26T00:56:00.480Z,1001.78
2017-07-26T00:56:49.601Z,1001.77
2017-07-26T00:57:43.617Z,1001.81
2017-07-26T00:58:37.684Z,1001.79
2017-07-26T00:59:26.716Z,1001.79
2017-07-26T01:00:20.758Z,1001.87
2017-07-26T01:01:21.760Z,1001.85
2017-07-26T01:02:15.838Z,1001.83
2017-07-26T01:03:03.899Z,1001.85
2017-07-26T01:03:58.199Z,1001.86
2017-07-26T01:04:51.921Z,1001.83
2017-07-26T01:05:46.956Z,1001.82
2017-07-26T01:06:41.046Z,1001.83
2017-07-26T01:07:29.167Z,1001.84
2017-07-26T01:08:24.428Z,1001.78
2017-07-26T01:09:19.184Z,1001.81
2017-07-26T01:10:13.249Z,1001.80
2017-07-26T01:11:08.492Z,1001.84
2017-07-26T01:12:02.670Z,1001.78
2017-07-26T01:13:03.176Z,1001.84
2017-07-26T01:13:56.725Z,1001.82
2017-07-26T01:14:45.425Z,1001.87
2017-07-26T01:15:39.367Z,1001.81
2017-07-26T01:16:45.412Z,1001.85
2017-07-26T01:17:40.415Z,1001.82
2017-07-26T01:18:41.020Z,1001.83
2017-07-26T01:19:29.549Z,1001.85
2017-07-26T01:20:24.516Z,1001.80
2017-07-26T01:21:24.558Z,1001.77
2017-07-26T01:22:13.671Z,1001.80
2017-07-26T01:23:01.612Z,1001.78
2017-07-26T01:24:02.297Z,1001.81
2017-07-26T01:24:51.123Z,1001.81
2017-07-26T01:25:44.889Z,1001.81
2017-07-26T01:26:33.868Z,1001.80
2017-07-26T01:27:28.849Z,1001.79
2017-07-26T01:28:29.317Z,1001.78
2017-07-26T01:29:23.954Z,1001.77
2017-07-26T01:30:18.942Z,1001.75
2017-07-26T01:31:19.168Z,1001.79
2017-07-26T01:32:14.102Z,1001.75
2017-07-26T01:33:02.231Z,1001.74
2017-07-26T01:33:56.594Z,1001.73
2017-07-26T01:34:50.284Z,1001.73
2017-07-26T01:35:45.332Z,1001.72
2017-07-26T01:36:40.475Z,1001.69
2017-07-26T01:37:40.250Z,1001.73
2017-07-26T01:38:35.655Z,1001.70
2017-07-26T01:39:29.399Z,1001.68
2017-07-26T01:40:29.527Z,1001.69
2017-07-26T01:41:30.382Z,1001.71
2017-07-26T01:42:31.479Z,1001.65
2017-07-26T01:43:26.933Z,1001.68
2017-07-26T01:44:20.606Z,1001.68
2017-07-26T01:45:20.537Z,1001.62
2017-07-26T01:46:16.004Z,1001.63
2017-07-26T01:47:04.750Z,1001.59
2017-07-26T01:47:58.711Z,1001.59
2017-07-26T01:48:53.806Z,1001.59
2017-07-26T01:49:42.773Z,1001.61
2017-07-26T01:50:37.161Z,1001.58
2017-07-26T01:51:30.889Z,1001.58
2017-07-26T01:52:25.945Z,1001.54
2017-07-26T01:53:25.924Z,1001.59
2017-07-26T01:54:13.972Z,1001.58
2017-07-26T01:55:09.085Z,1001.63
2017-07-26T01:56:03.032Z,1001.65
2017-07-26T01:56:57.352Z,1001.65
2017-07-26T01:57:51.176Z,1001.64
2017-07-26T01:58:52.205Z,1001.61
2017-07-26T01:59:41.293Z,1001.62
2017-07-26T02:00:30.237Z,1001.63
2017-07-26T02:01:30.286Z,1001.57
2017-07-26T02:02:25.320Z,1001.64
2017-07-26T02:03:19.473Z,1001.60
2017-07-26T02:04:14.356Z,1001.67
2017-07-26T02:05:15.517Z,1001.67
2017-07-26T02:06:04.449Z,1001.65
2017-07-26T02:06:59.572Z,1001.70
2017-07-26T02:07:48.578Z,1001.71
2017-07-26T02:08:37.056Z,1001.74
2017-07-26T02:09:31.733Z,1001.74
2017-07-26T02:10:31.670Z,1001.69
2017-07-26T02:11:19.906Z,1001.66
2017-07-26T02:12:14.762Z,1001.68
2017-07-26T02:13:09.341Z,1001.67
2017-07-26T02:13:57.271Z,1001.68
2017-07-26T02:14:52.080Z,1001.69
2017-07-26T02:15:52.228Z,1001.68
2017-07-26T02:16:57.910Z,1001.70
2017-07-26T02:17:52.974Z,1001.71
2017-07-26T02:18:42.358Z,1001.69
2017-07-26T02:19:48.060Z,1001.65
2017-07-26T02:20:42.122Z,1001.66
2017-07-26T02:21:30.229Z,1001.63
2017-07-26T02:22:25.465Z,1001.63
2017-07-26T02:23:25.275Z,1001.61
2017-07-26T02:24:20.232Z,1001.60
2017-07-26T02:25:14.307Z,1001.62
2017-07-26T02:26:09.419Z,1001.59
2017-07-26T02:27:04.406Z,1001.57
2017-07-26T02:27:58.382Z,1001.61
2017-07-26T02:28:47.774Z,1001.67
2017-07-26T02:29:36.954Z,1001.62
2017-07-26T02:30:30.709Z,1001.65
2017-07-26T02:31:30.493Z,1001.63
2017-07-26T02:32:25.991Z,1001.68
2017-07-26T02:33:26.028Z,1001.65
2017-07-26T02:34:13.976Z,1001.67
2017-07-26T02:35:03.130Z,1001.66
2017-07-26T02:35:51.895Z,1001.64
2017-07-26T02:36:40.242Z,1001.64
2017-07-26T02:37:35.215Z,1001.63
2017-07-26T02:38:30.235Z,1001.64
2017-07-26T02:39:31.208Z,1001.64
2017-07-26T02:40:25.984Z,1001.64
2017-07-26T02:41:21.367Z,1001.59
2017-07-26T02:42:21.405Z,1001.59
2017-07-26T02:43:10.325Z,1001.63
2017-07-26T02:44:04.572Z,1001.63
2017-07-26T02:45:04.098Z,1001.66
2017-07-26T02:45:58.291Z,1001.67
2017-07-26T02:46:58.151Z,1001.65
2017-07-26T02:47:53.227Z,1001.67
2017-07-26T02:48:48.627Z,1001.69
2017-07-26T02:49:48.364Z,1001.71
2017-07-26T02:50:43.331Z,1001.69
2017-07-26T02:51:38.417Z,1001.71
2017-07-26T02:52:26.804Z,1001.67
2017-07-26T02:53:20.821Z,1001.69
2017-07-26T02:54:14.611Z,1001.73
2017-07-26T02:55:09.617Z,1001.72
2017-07-26T02:55:58.696Z,1001.75
2017-07-26T02:56:53.655Z,1001.75
2017-07-26T02:57:42.000Z,1001.75
2017-07-26T02:58:31.133Z,1001.74
2017-07-26T02:59:25.950Z,1001.74
2017-07-26T03:00:19.807Z,1001.76
2017-07-26T03:01:14.910Z,1001.79
2017-07-26T03:02:16.136Z,1001.75
2017-07-26T03:03:09.844Z,1001.75
2017-07-26T03:03:59.017Z,1001.80
2017-07-26T03:04:48.085Z,1001.81
2017-07-26T03:05:36.033Z,1001.80
2017-07-26T03:06:36.112Z,1001.79
2017-07-26T03:07:31.129Z,1001.81
2017-07-26T03:08:25.552Z,1001.79
2017-07-26T03:09:25.349Z,1001.80
2017-07-26T03:10:14.493Z,1001.79
2017-07-26T03:11:03.271Z,1001.79
2017-07-26T03:11:57.282Z,1001.74
2017-07-26T03:12:52.518Z,1001.77
2017-07-26T03:13:47.467Z,1001.76
2017-07-26T03:14:41.425Z,1001.77
2017-07-26T03:15:36.460Z,1001.73
2017-07-26T03:16:24.561Z,1001.76
2017-07-26T03:17:13.586Z,1001.75
2017-07-26T03:18:01.638Z,1001.75
2017-07-26T03:18:50.636Z,1001.76
2017-07-26T03:19:39.765Z,1001.79
2017-07-26T03:20:27.703Z,1001.74
2017-07-26T03:21:22.761Z,1001.78
2017-07-26T03:22:16.892Z,1001.77
2017-07-26T03:23:16.874Z,1001.80
2017-07-26T03:24:10.888Z,1001.79
2017-07-26T03:25:05.385Z,1001.80
2017-07-26T03:25:59.030Z,1001.79
2017-07-26T03:26:53.947Z,1001.75
2017-07-26T03:27:54.002Z,1001.77
2017-07-26T03:28:49.243Z,1001.78
2017-07-26T03:29:55.181Z,1001.75
2017-07-26T03:30:55.367Z,1001.73
2017-07-26T03:31:44.243Z,1001.75
2017-07-26T03:32:38.250Z,1001.70
2017-07-26T03:33:32.193Z,1001.71
2017-07-26T03:34:32.732Z,1001.71
2017-07-26T03:35:26.391Z,1001.73
2017-07-26T03:36:26.413Z,1001.71
2017-07-26T03:37:21.446Z,1001.70
2017-07-26T03:38:16.511Z,1001.73
2017-07-26T03:39:10.554Z,1001.78
2017-07-26T03:40:10.555Z,1001.80
2017-07-26T03:41:06.079Z,1001.79
2017-07-26T03:42:05.684Z,1001.76
2017-07-26T03:42:59.684Z,1001.77
2017-07-26T03:43:54.151Z,1001.75
2017-07-26T03:44:41.674Z,1001.78
2017-07-26T03:45:29.738Z,1001.75
2017-07-26T03:46:18.831Z,1001.72
2017-07-26T03:47:12.874Z,1001.74
2017-07-26T03:48:07.797Z,1001.74
2017-07-26T03:48:56.975Z,1001.74
2017-07-26T03:49:52.242Z,1001.72
2017-07-26T03:50:52.265Z,1001.69
2017-07-26T03:51:52.354Z,1001.71
2017-07-26T03:52:53.145Z,1001.70
2017-07-26T03:53:53.526Z,1001.69
2017-07-26T03:54:48.201Z,1001.72
2017-07-26T03:55:37.192Z,1001.72
2017-07-26T03:56:26.270Z,1001.74
2017-07-26T03:57:20.315Z,1001.70
2017-07-26T03:58:15.368Z,1001.72
2017-07-26T03:59:15.437Z,1001.69
2017-07-26T04:00:21.395Z,1001.71
2017-07-26T04:01:16.531Z,1001.69
2017-07-26T04:02:10.417Z,1001.69
2017-07-26T04:03:04.583Z,1001.72
2017-07-26T04:03:58.577Z,1001.67
2017-07-26T04:04:52.569Z,1001.69
2017-07-26T04:05:47.591Z,1001.75
2017-07-26T04:06:43.007Z,1001.73
2017-07-26T04:07:36.732Z,1001.75
2017-07-26T04:08:30.709Z,1001.75
2017-07-26T04:09:25.868Z,1001.76
2017-07-26T04:10:19.797Z,1001.72
2017-07-26T04:11:07.974Z,1001.72
2017-07-26T04:12:01.926Z,1001.77
2017-07-26T04:12:56.041Z,1001.75
2017-07-26T04:13:50.065Z,1001.79
2017-07-26T04:14:44.143Z,1001.82
2017-07-26T04:15:44.104Z,1001.79
2017-07-26T04:16:38.158Z,1001.81
2017-07-26T04:17:44.197Z,1001.83
2017-07-26T04:18:38.297Z,1001.80
2017-07-26T04:19:39.249Z,1001.78
2017-07-26T04:20:34.285Z,1001.79
2017-07-26T04:21:22.386Z,1001.78
2017-07-26T04:22:22.400Z,1001.79
2017-07-26T04:23:22.965Z,1001.78
2017-07-26T04:24:22.594Z,1001.80
2017-07-26T04:25:23.435Z,1001.78
2017-07-26T04:26:18.455Z,1001.80
2017-07-26T04:27:12.541Z,1001.87
2017-07-26T04:28:06.545Z,1001.83
2017-07-26T04:28:55.647Z,1001.84
2017-07-26T04:29:50.935Z,1001.87
2017-07-26T04:30:45.732Z,1001.87
2017-07-26T04:31:33.770Z,1001.87
2017-07-26T04:32:34.760Z,1001.89
2017-07-26T04:33:34.857Z,1001.88
2017-07-26T04:34:29.807Z,1001.90
2017-07-26T04:35:25.042Z,1001.89
2017-07-26T04:36:25.955Z,1001.90
2017-07-26T04:37:25.984Z,1001.86
2017-07-26T04:38:20.103Z,1001.86
2017-07-26T04:39:09.025Z,1001.84
2017-07-26T04:39:58.065Z,1001.87
2017-07-26T04:40:53.175Z,1001.88
2017-07-26T04:41:47.301Z,1001.90
2017-07-26T04:42:41.199Z,1001.89
2017-07-26T04:43:35.272Z,1001.89
2017-07-26T04:44:29.259Z,1001.90
2017-07-26T04:45:29.376Z,1001.92
2017-07-26T04:46:29.364Z,1001.89
2017-07-26T04:47:29.421Z,1001.85
2017-07-26T04:48:25.019Z,1001.85
2017-07-26T04:49:13.480Z,1001.82
2017-07-26T04:50:07.549Z,1001.84
2017-07-26T04:50:56.660Z,1001.83
2017-07-26T04:51:57.621Z,1001.83
2017-07-26T04:52:57.636Z,1001.87
2017-07-26T04:53:52.643Z,1001.87
2017-07-26T04:54:46.728Z,1001.90
2017-07-26T04:55:46.813Z,1001.91
2017-07-26T04:56:41.785Z,1001.89
2017-07-26T04:57:41.862Z,1001.90
2017-07-26T04:58:41.820Z,1001.89
2017-07-26T04:59:36.801Z,1001.90
2017-07-26T05:00:31.047Z,1001.94
2017-07-26T05:01:24.943Z,1001.91
2017-07-26T05:02:25.004Z,1001.96
2017-07-26T05:03:20.040Z,1001.89
2017-07-26T05:04:14.033Z,1001.93
2017-07-26T05:05:15.081Z,1001.93
2017-07-26T05:06:09.245Z,1001.92
2017-07-26T05:07:03.314Z,1001.88
2017-07-26T05:07:58.288Z,1001.89
2017-07-26T05:08:59.354Z,1001.88
2017-07-26T05:09:48.359Z,1001.87
2017-07-26T05:10:43.434Z,1001.85
2017-07-26T05:11:32.363Z,1001.87
2017-07-26T05:12:27.449Z,1001.83
2017-07-26T05:13:27.934Z,1001.86
2017-07-26T05:14:21.642Z,1001.87
2017-07-26T05:15:21.671Z,1001.89
2017-07-26T05:16:16.573Z,1001.88
2017-07-26T05:17:05.628Z,1001.89
2017-07-26T05:17:54.671Z,1001.88
2017-07-26T05:18:48.697Z,1001.91
2017-07-26T05:19:43.836Z,1001.90
2017-07-26T05:20:38.910Z,1001.92
2017-07-26T05:21:33.860Z,1001.90
2017-07-26T05:22:27.850Z,1001.89
2017-07-26T05:23:29.126Z,1001.89
2017-07-26T05:24:22.942Z,1001.88
2017-07-26T05:25:17.016Z,1001.87
2017-07-26T05:26:06.200Z,1001.93
2017-07-26T05:27:06.023Z,1001.85
2017-07-26T05:28:01.136Z,1001.85
2017-07-26T05:28:55.413Z,1001.88
2017-07-26T05:29:55.215Z,1001.88
2017-07-26T05:30:50.330Z,1001.90
2017-07-26T05:31:45.484Z,1001.96
2017-07-26T05:32:45.329Z,1002.03
2017-07-26T05:33:40.360Z,1002.08
2017-07-26T05:34:40.460Z,1002.14
2017-07-26T05:35:41.853Z,1002.09
2017-07-26T05:36:41.898Z,1002.05
2017-07-26T05:37:36.867Z,1002.03
2017-07-26T05:38:30.961Z,1002.10
2017-07-26T05:39:31.094Z,1002.20
2017-07-26T05:40:31.030Z,1002.19
2017-07-26T05:41:25.081Z,1002.17
2017-07-26T05:42:14.176Z,1002.12
2017-07-26T05:43:02.193Z,1002.08
2017-07-26T05:44:02.288Z,1002.02
2017-07-26T05:44:56.271Z,1002.00
2017-07-26T05:45:51.257Z,1002.05
2017-07-26T05:46:40.468Z,1002.04
2017-07-26T05:47:35.404Z,1002.13
2017-07-26T05:48:24.605Z,1002.09
2017-07-26T05:49:12.543Z,1002.12
2017-07-26T05:50:06.756Z,1002.12
2017-07-26T05:51:00.624Z,1002.10
2017-07-26T05:51:54.669Z,1002.17
2017-07-26T05:52:49.662Z,1002.22
2017-07-26T05:53:37.762Z,1002.05
2017-07-26T05:54:37.695Z,1002.02
2017-07-26T05:55:26.735Z,1002.06
2017-07-26T05:56:26.833Z,1002.02
2017-07-26T05:57:26.863Z,1001.98
2017-07-26T05:58:21.050Z,1002.04
2017-07-26T05:59:14.893Z,1002.03
2017-07-26T06:00:08.985Z,1002.07
2017-07-26T06:00:58.072Z,1002.09
2017-07-26T06:01:58.032Z,1002.26
2017-07-26T06:02:58.135Z,1002.21
2017-07-26T06:03:52.133Z,1002.22
2017-07-26T06:04:53.274Z,1002.17
2017-07-26T06:05:47.293Z,1002.09
2017-07-26T06:06:35.358Z,1002.06
2017-07-26T06:07:24.374Z,1002.29
2017-07-26T06:08:12.423Z,1002.19
2017-07-26T06:09:00.453Z,1002.23
2017-07-26T06:09:54.544Z,1002.10
2017-07-26T06:10:48.521Z,1002.23
2017-07-26T06:11:36.656Z,1002.26
2017-07-26T06:12:25.693Z,1002.16
2017-07-26T06:13:25.761Z,1002.09
2017-07-26T06:14:20.972Z,1002.00
2017-07-26T06:15:14.739Z,1002.07
2017-07-26T06:16:03.866Z,1002.04
2017-07-26T06:16:51.970Z,1001.95
2017-07-26T06:17:45.930Z,1002.12
2017-07-26T06:18:39.929Z,1002.07
2017-07-26T06:19:34.042Z,1002.09
2017-07-26T06:20:34.098Z,1002.04
2017-07-26T06:21:23.015Z,1002.22
2017-07-26T06:22:17.132Z,1002.24
2017-07-26T06:23:17.212Z,1002.27
2017-07-26T06:24:12.189Z,1002.19
2017-07-26T06:25:01.297Z,1002.25
2017-07-26T06:26:01.251Z,1002.16
2017-07-26T06:26:50.475Z,1002.09
2017-07-26T06:27:45.353Z,1002.16
2017-07-26T06:28:40.468Z,1002.20
2017-07-26T06:29:34.468Z,1002.17
2017-07-26T06:30:29.611Z,1002.20
2017-07-26T06:31:24.685Z,1002.25
2017-07-26T06:32:13.714Z,1002.38
2017-07-26T06:33:08.762Z,1002.32
2017-07-26T06:34:02.895Z,1002.35
2017-07-26T06:34:56.840Z,1001.98
2017-07-26T06:35:53.717Z,1002.19
2017-07-26T06:36:45.030Z,1002.09
2017-07-26T06:37:39.118Z,1002.16
2017-07-26T06:38:33.152Z,1002.31
2017-07-26T06:39:33.131Z,1002.19
2017-07-26T06:40:21.347Z,1002.21
2017-07-26T06:41:15.252Z,1002.28
2017-07-26T06:42:09.410Z,1002.36
2017-07-26T06:43:04.523Z,1002.35
2017-07-26T06:43:53.625Z,1002.45
2017-07-26T06:44:48.460Z,1002.42
2017-07-26T06:45:42.554Z,1002.55
2017-07-26T06:46:36.652Z,1002.53
2017-07-26T06:47:30.774Z,1002.63
2017-07-26T06:48:24.852Z,1002.59
2017-07-26T06:49:12.966Z,1002.56
2017-07-26T06:50:13.097Z,1002.37
2017-07-26T06:51:08.101Z,1002.43
2017-07-26T06:51:57.196Z,1002.36
2017-07-26T06:52:51.169Z,1002.51
2017-07-26T06:53:46.199Z,1002.36
2017-07-26T06:54:35.455Z,1002.23
2017-07-26T06:55:29.398Z,1002.22
2017-07-26T06:56:18.484Z,1002.37
2017-07-26T06:57:06.617Z,1002.44
2017-07-26T06:58:01.561Z,1002.46
2017-07-26T06:58:55.640Z,1002.58
2017-07-26T06:59:44.721Z,1002.49
2017-07-26T07:00:45.890Z,1002.59
2017-07-26T07:01:34.834Z,1002.31
2017-07-26T07:02:28.858Z,1002.47
2017-07-26T07:03:17.953Z,1002.53
2017-07-26T07:04:13.042Z,1002.56
2017-07-26T07:05:08.067Z,1002.69
2017-07-26T07:06:02.204Z,1002.79
2017-07-26T07:07:02.165Z,1002.74
2017-07-26T07:07:51.415Z,1002.76
2017-07-26T07:08:45.394Z,1002.74
2017-07-26T07:09:45.402Z,1002.66
2017-07-26T07:10:45.555Z,1002.55
2017-07-26T07:11:39.552Z,1002.68
2017-07-26T07:12:33.627Z,1002.66
2017-07-26T07:13:27.733Z,1002.37
2017-07-26T07:14:27.704Z,1002.58
2017-07-26T07:15:16.794Z,1002.50
2017-07-26T07:16:10.857Z,1002.39
2017-07-26T07:17:10.853Z,1002.42
2017-07-26T07:18:04.894Z,1002.55
2017-07-26T07:19:04.994Z,1002.71
2017-07-26T07:19:53.979Z,1002.66
2017-07-26T07:20:49.081Z,1002.50
2017-07-26T07:21:43.125Z,1002.45
2017-07-26T07:22:38.127Z,1002.46
2017-07-26T07:23:38.313Z,1002.42
2017-07-26T07:24:38.381Z,1002.50
2017-07-26T07:25:27.342Z,1002.44
2017-07-26T07:26:22.394Z,1002.41
2017-07-26T07:27:16.495Z,1002.47
2017-07-26T07:28:11.530Z,1002.53
2017-07-26T07:29:06.671Z,1002.47
2017-07-26T07:29:54.624Z,1002.76
2017-07-26T07:30:43.764Z,1002.70
2017-07-26T07:31:32.756Z,1002.68
2017-07-26T07:32:26.803Z,1002.44
2017-07-26T07:33:20.838Z,1002.51
2017-07-26T07:34:15.953Z,1002.63
2017-07-26T07:35:10.985Z,1002.62
2017-07-26T07:36:11.052Z,1002.42
2017-07-26T07:37:06.132Z,1002.59
2017-07-26T07:38:01.078Z,1002.45
2017-07-26T07:38:55.203Z,1002.46
2017-07-26T07:39:50.245Z,1002.40
2017-07-26T07:40:50.677Z,1002.62
2017-07-26T07:41:45.349Z,1002.39
2017-07-26T07:42:45.455Z,1002.42
2017-07-26T07:43:39.425Z,1002.48
2017-07-26T07:44:39.486Z,1002.66
2017-07-26T07:45:33.521Z,1002.63
2017-07-26T07:46:27.686Z,1002.64
2017-07-26T07:47:16.667Z,1002.61
2017-07-26T07:48:10.666Z,1002.62
2017-07-26T07:49:04.770Z,1002.57
2017-07-26T07:49:52.853Z,1002.54
2017-07-26T07:50:46.820Z,1002.52
2017-07-26T07:51:41.053Z,1002.49
2017-07-26T07:52:35.081Z,1002.48
2017-07-26T07:53:30.276Z,1002.52
2017-07-26T07:54:18.175Z,1002.49
2017-07-26T07:55:13.206Z,1002.52
2017-07-26T07:56:07.271Z,1002.48
2017-07-26T07:57:01.401Z,1002.43
2017-07-26T07:57:55.348Z,1002.49
2017-07-26T07:58:49.435Z,1002.43
2017-07-26T07:59:50.532Z,1002.45
2017-07-26T08:00:50.446Z,1002.47
2017-07-26T08:01:44.541Z,1002.47
2017-07-26T08:02:38.661Z,1002.49
2017-07-26T08:03:32.711Z,1002.47
2017-07-26T08:04:33.849Z,1002.41
2017-07-26T08:05:22.821Z,1002.43
2017-07-26T08:06:22.879Z,1002.43
2017-07-26T08:07:17.071Z,1002.44
2017-07-26T08:08:11.009Z,1002.41
2017-07-26T08:09:05.082Z,1002.39
2017-07-26T08:10:05.127Z,1002.40
2017-07-26T08:10:59.164Z,1002.45
2017-07-26T08:11:54.264Z,1002.42
2017-07-26T08:12:43.310Z,1002.40
2017-07-26T08:13:38.313Z,1002.27
2017-07-26T08:14:27.440Z,1002.57
2017-07-26T08:15:21.497Z,1002.41
2017-07-26T08:16:15.448Z,1002.56
2017-07-26T08:17:03.662Z,1002.45
2017-07-26T08:17:57.652Z,1002.46
2017-07-26T08:18:51.754Z,1002.43
2017-07-26T08:19:46.820Z,1002.34
2017-07-26T08:20:40.889Z,1002.54
2017-07-26T08:21:34.854Z,1002.58
2017-07-26T08:22:29.952Z,1002.27
2017-07-26T08:23:24.047Z,1002.34
2017-07-26T08:24:13.177Z,1002.38
2017-07-26T08:25:19.131Z,1002.42
2017-07-26T08:26:14.198Z,1002.44
2017-07-26T08:27:08.342Z,1002.43
2017-07-26T08:28:08.322Z,1002.47
2017-07-26T08:29:02.344Z,1002.53
2017-07-26T08:29:51.529Z,1002.56
2017-07-26T08:30:39.450Z,1002.86
2017-07-26T08:31:33.520Z,1002.91
2017-07-26T08:32:33.604Z,1002.61
2017-07-26T08:33:22.676Z,1002.46
2017-07-26T08:34:11.791Z,1002.44
2017-07-26T08:34:59.727Z,1002.46
2017-07-26T08:35:54.898Z,1002.66
2017-07-26T08:36:54.877Z,1002.48
2017-07-26T08:37:48.931Z,1002.53
2017-07-26T08:38:44.005Z,1002.50
2017-07-26T08:39:33.056Z,1002.43
2017-07-26T08:40:28.151Z,1002.62
2017-07-26T08:41:17.130Z,1002.39
2017-07-26T08:42:23.270Z,1002.74
2017-07-26T08:43:17.199Z,1002.70
2017-07-26T08:44:12.287Z,1002.56
2017-07-26T08:45:12.437Z,1002.48
2017-07-26T08:46:01.460Z,1002.68
2017-07-26T08:46:56.495Z,1002.52
2017-07-26T08:47:56.561Z,1002.54
2017-07-26T08:48:45.662Z,1002.65
2017-07-26T08:49:34.628Z,1002.91
2017-07-26T08:50:28.687Z,1003.07
2017-07-26T08:51:23.759Z,1003.02
2017-07-26T08:52:23.850Z,1002.86
2017-07-26T08:53:17.837Z,1002.57
2017-07-26T08:54:18.016Z,1002.58
2017-07-26T08:55:13.054Z,1002.35
2017-07-26T08:56:07.150Z,1002.31
2017-07-26T08:57:01.143Z,1002.33
2017-07-26T08:58:01.200Z,1002.30
2017-07-26T08:59:01.204Z,1002.32
2017-07-26T08:59:55.291Z,1002.42
2017-07-26T09:00:50.354Z,1002.59
2017-07-26T09:01:39.383Z,1002.56
2017-07-26T09:02:34.541Z,1002.52
2017-07-26T09:03:23.544Z,1002.56
2017-07-26T09:04:17.612Z,1002.50
2017-07-26T09:05:12.702Z,1002.40
2017-07-26T09:06:06.697Z,1002.61
2017-07-26T09:06:55.719Z,1002.47
2017-07-26T09:07:44.833Z,1002.51
2017-07-26T09:08:33.949Z,1002.32
2017-07-26T09:09:34.917Z,1002.54
2017-07-26T09:10:30.000Z,1002.58
2017-07-26T09:11:25.034Z,1002.56
2017-07-26T09:12:20.070Z,1002.54
2017-07-26T09:13:09.210Z,1002.54
2017-07-26T09:14:03.229Z,1002.49
2017-07-26T09:15:03.338Z,1002.51
2017-07-26T09:16:03.358Z,1002.41
2017-07-26T09:16:57.383Z,1002.18
2017-07-26T09:17:45.519Z,1002.46
2017-07-26T09:18:40.566Z,1002.48
2017-07-26T09:19:40.593Z,1002.48
2017-07-26T09:20:34.570Z,1002.47
2017-07-26T09:21:29.627Z,1002.48
2017-07-26T09:22:29.720Z,1002.62
2017-07-26T09:23:18.705Z,1002.79
2017-07-26T09:24:06.871Z,1002.86
2017-07-26T09:25:00.921Z,1002.69
2017-07-26T09:25:54.935Z,1002.57
2017-07-26T09:26:55.055Z,1002.36
2017-07-26T09:27:50.252Z,1002.31
2017-07-26T09:28:44.152Z,1002.27
2017-07-26T09:29:33.284Z,1002.34
2017-07-26T09:30:22.293Z,1002.44
2017-07-26T09:31:11.380Z,1002.46
2017-07-26T09:32:06.453Z,1002.46
2017-07-26T09:33:06.455Z,1002.47
2017-07-26T09:34:00.547Z,1002.78
2017-07-26T09:34:55.646Z,1002.69
2017-07-26T09:35:49.699Z,1002.57
2017-07-26T09:36:43.750Z,1002.61
2017-07-26T09:37:37.733Z,1002.67
2017-07-26T09:38:37.907Z,1002.49
2017-07-26T09:39:32.923Z,1002.47
2017-07-26T09:40:21.959Z,1002.45
2017-07-26T09:41:16.070Z,1002.41
2017-07-26T09:42:05.102Z,1002.23
2017-07-26T09:42:59.137Z,1002.56
2017-07-26T09:43:54.246Z,1002.52
2017-07-26T09:44:48.393Z,1002.52
2017-07-26T09:45:37.454Z,1002.48
2017-07-26T09:46:31.450Z,1002.46
2017-07-26T09:47:26.505Z,1002.50
2017-07-26T09:48:21.544Z,1002.44
2017-07-26T09:49:10.580Z,1002.59
2017-07-26T09:50:04.728Z,1002.60
2017-07-26T09:51:04.818Z,1002.52
2017-07-26T09:51:53.793Z,1002.16
2017-07-26T09:52:42.855Z,1002.21
2017-07-26T09:53:36.966Z,1002.57
2017-07-26T09:54:26.032Z,1002.34
2017-07-26T09:55:20.091Z,1002.35
2017-07-26T09:56:15.123Z,1002.68
2017-07-26T09:57:09.169Z,1002.50
2017-07-26T09:58:04.292Z,1002.80
2017-07-26T09:58:53.311Z,1002.94
2017-07-26T09:59:47.329Z,1002.86
2017-07-26T10:00:41.382Z,1002.85
2017-07-26T10:01:30.494Z,1002.93
2017-07-26T10:02:24.639Z,1002.91
2017-07-26T10:03:12.568Z,1002.86
2017-07-26T10:04:06.648Z,1002.57
2017-07-26T10:04:54.796Z,1002.60
2017-07-26T10:05:54.812Z,1002.60
2017-07-26T10:06:49.880Z,1002.87
2017-07-26T10:07:38.931Z,1002.72
2017-07-26T10:08:34.058Z,1002.64
2017-07-26T10:09:28.069Z,1002.67
2017-07-26T10:10:23.160Z,1002.65
2017-07-26T10:11:23.179Z,1002.61
2017-07-26T10:12:17.218Z,1002.51
2017-07-26T10:13:12.367Z,1002.73
2017-07-26T10:14:06.916Z,1002.80
2017-07-26T10:15:01.409Z,1002.78
2017-07-26T10:16:01.520Z,1002.88
2017-07-26T10:16:55.533Z,1002.94
2017-07-26T10:17:56.704Z,1002.91
2017-07-26T10:18:50.623Z,1002.78
2017-07-26T10:19:38.718Z,1002.48
2017-07-26T10:20:38.794Z,1002.55
2017-07-26T10:21:32.885Z,1002.56
2017-07-26T10:22:27.887Z,1002.61
2017-07-26T10:23:15.979Z,1002.55
2017-07-26T10:24:04.062Z,1002.59
2017-07-26T10:24:52.148Z,1002.62
2017-07-26T10:25:41.161Z,1002.64
2017-07-26T10:26:35.260Z,1002.64
2017-07-26T10:27:24.298Z,1002.68
2017-07-26T10:28:19.300Z,1002.70
2017-07-26T10:29:08.401Z,1002.99
2017-07-26T10:30:02.397Z,1002.97
2017-07-26T10:30:51.509Z,1002.99
2017-07-26T10:31:40.610Z,1003.01
2017-07-26T10:32:40.680Z,1003.07
2017-07-26T10:33:35.726Z,1003.01
2017-07-26T10:34:30.782Z,1003.03
2017-07-26T10:35:24.785Z,1003.00
2017-07-26T10:36:13.882Z,1003.00
2017-07-26T10:37:07.977Z,1003.03
2017-07-26T10:38:02.004Z,1002.99
2017-07-26T10:39:02.118Z,1002.97
2017-07-26T10:39:57.195Z,1002.68
2017-07-26T10:40:57.167Z,1002.72
2017-07-26T10:41:51.303Z,1002.83
2017-07-26T10:42:45.246Z,1002.89
2017-07-26T10:43:39.399Z,1002.85
2017-07-26T10:44:27.439Z,1002.80
2017-07-26T10:45:16.470Z,1002.83
2017-07-26T10:46:11.603Z,1002.86
2017-07-26T10:47:11.520Z,1002.83
2017-07-26T10:48:05.640Z,1002.89
2017-07-26T10:48:59.691Z,1002.82
2017-07-26T10:49:59.764Z,1002.86
2017-07-26T10:50:54.897Z,1002.91
2017-07-26T10:51:48.818Z,1002.94
2017-07-26T10:52:37.863Z,1002.97
2017-07-26T10:53:33.115Z,1003.00
2017-07-26T10:54:27.968Z,1002.95
2017-07-26T10:55:17.160Z,1003.09
2017-07-26T10:56:06.240Z,1003.08
2017-07-26T10:56:55.250Z,1003.14
2017-07-26T10:57:55.272Z,1003.17